sensor_id;sensor_type;location;lat;lon;timestamp;P1;durP1;ratioP1;P2;durP2;ratioP2
59728;SDS011;45588;51.598;5.618;2024-02-14T00:01:46;6.20;;;5.18;;
59728;SDS011;45588;51.598;5.618;2024-02-14T00:04:12;8.27;;;5.43;;
59728;SDS011;45588;51.598;5.618;2024-02-14T00:06:38;7.03;;;5.50;;
59728;SDS011;45588;51.598;5.618;2024-02-14T00:09:04;10.38;;;6.22;;
59728;SDS011;45588;51.598;5.618;2024-02-14T00:11:30;9.65;;;6.13;;
59728;SDS011;45588;51.598;5.618;2024-02-14T00:13:55;8.57;;;6.37;;
59728;SDS011;45588;51.598;5.618;2024-02-14T00:16:21;6.90;;;5.32;;
59728;SDS011;45588;51.598;5.618;2024-02-14T00:18:46;8.23;;;5.28;;
59728;SDS011;45588;51.598;5.618;2024-02-14T00:21:11;10.03;;;6.47;;
59728;SDS011;45588;51.598;5.618;2024-02-14T00:23:38;11.20;;;6.15;;
59728;SDS011;45588;51.598;5.618;2024-02-14T00:26:03;11.40;;;6.63;;
59728;SDS011;45588;51.598;5.618;2024-02-14T00:28:28;8.77;;;6.75;;
59728;SDS011;45588;51.598;5.618;2024-02-14T00:30:54;11.02;;;6.75;;
59728;SDS011;45588;51.598;5.618;2024-02-14T00:33:19;8.85;;;6.75;;
59728;SDS011;45588;51.598;5.618;2024-02-14T00:35:45;8.48;;;6.43;;
59728;SDS011;45588;51.598;5.618;2024-02-14T00:38:10;9.82;;;6.32;;
59728;SDS011;45588;51.598;5.618;2024-02-14T00:40:35;11.90;;;7.18;;
59728;SDS011;45588;51.598;5.618;2024-02-14T00:43:01;10.32;;;6.80;;
59728;SDS011;45588;51.598;5.618;2024-02-14T00:45:27;9.02;;;7.20;;
59728;SDS011;45588;51.598;5.618;2024-02-14T00:47:52;11.48;;;7.28;;
59728;SDS011;45588;51.598;5.618;2024-02-14T00:50:17;9.23;;;6.83;;
59728;SDS011;45588;51.598;5.618;2024-02-14T00:52:42;10.73;;;7.07;;
59728;SDS011;45588;51.598;5.618;2024-02-14T00:55:08;12.77;;;6.43;;
59728;SDS011;45588;51.598;5.618;2024-02-14T00:57:33;9.88;;;7.47;;
59728;SDS011;45588;51.598;5.618;2024-02-14T00:59:58;11.60;;;6.80;;
59728;SDS011;45588;51.598;5.618;2024-02-14T01:02:24;12.95;;;7.13;;
59728;SDS011;45588;51.598;5.618;2024-02-14T01:04:51;12.63;;;7.13;;
59728;SDS011;45588;51.598;5.618;2024-02-14T01:07:16;15.13;;;7.80;;
59728;SDS011;45588;51.598;5.618;2024-02-14T01:09:41;17.42;;;13.57;;
59728;SDS011;45588;51.598;5.618;2024-02-14T01:12:06;12.38;;;9.45;;
59728;SDS011;45588;51.598;5.618;2024-02-14T01:14:31;10.30;;;6.75;;
59728;SDS011;45588;51.598;5.618;2024-02-14T01:16:57;9.23;;;7.17;;
59728;SDS011;45588;51.598;5.618;2024-02-14T01:19:22;9.27;;;7.13;;
59728;SDS011;45588;51.598;5.618;2024-02-14T01:21:49;17.25;;;8.60;;
59728;SDS011;45588;51.598;5.618;2024-02-14T01:24:14;14.27;;;7.70;;
59728;SDS011;45588;51.598;5.618;2024-02-14T01:26:39;10.50;;;7.35;;
59728;SDS011;45588;51.598;5.618;2024-02-14T01:29:05;11.05;;;7.35;;
59728;SDS011;45588;51.598;5.618;2024-02-14T01:31:30;13.82;;;7.88;;
59728;SDS011;45588;51.598;5.618;2024-02-14T01:33:56;11.23;;;6.85;;
59728;SDS011;45588;51.598;5.618;2024-02-14T01:36:22;15.02;;;7.07;;
59728;SDS011;45588;51.598;5.618;2024-02-14T01:38:47;11.90;;;7.00;;
59728;SDS011;45588;51.598;5.618;2024-02-14T01:41:13;10.93;;;6.72;;
59728;SDS011;45588;51.598;5.618;2024-02-14T01:43:38;13.30;;;7.35;;
59728;SDS011;45588;51.598;5.618;2024-02-14T01:46:07;11.40;;;6.53;;
59728;SDS011;45588;51.598;5.618;2024-02-14T01:48:35;13.70;;;6.45;;
59728;SDS011;45588;51.598;5.618;2024-02-14T01:51:01;8.52;;;6.63;;
59728;SDS011;45588;51.598;5.618;2024-02-14T01:53:27;10.80;;;5.82;;
59728;SDS011;45588;51.598;5.618;2024-02-14T01:55:55;9.82;;;5.93;;
59728;SDS011;45588;51.598;5.618;2024-02-14T01:58:20;10.23;;;5.45;;
59728;SDS011;45588;51.598;5.618;2024-02-14T02:00:45;10.68;;;5.68;;
59728;SDS011;45588;51.598;5.618;2024-02-14T02:03:11;12.88;;;6.35;;
59728;SDS011;45588;51.598;5.618;2024-02-14T02:05:36;11.63;;;5.77;;
59728;SDS011;45588;51.598;5.618;2024-02-14T02:08:01;8.77;;;5.47;;
59728;SDS011;45588;51.598;5.618;2024-02-14T02:10:27;9.40;;;5.50;;
59728;SDS011;45588;51.598;5.618;2024-02-14T02:12:57;12.20;;;5.63;;
59728;SDS011;45588;51.598;5.618;2024-02-14T02:15:22;7.90;;;5.23;;
59728;SDS011;45588;51.598;5.618;2024-02-14T02:17:48;11.40;;;6.10;;
59728;SDS011;45588;51.598;5.618;2024-02-14T02:20:17;16.05;;;10.02;;
59728;SDS011;45588;51.598;5.618;2024-02-14T02:22:45;8.25;;;5.28;;
59728;SDS011;45588;51.598;5.618;2024-02-14T02:25:12;9.80;;;5.72;;
59728;SDS011;45588;51.598;5.618;2024-02-14T02:27:37;10.83;;;5.70;;
59728;SDS011;45588;51.598;5.618;2024-02-14T02:30:02;10.52;;;6.32;;
59728;SDS011;45588;51.598;5.618;2024-02-14T02:32:29;8.70;;;5.53;;
59728;SDS011;45588;51.598;5.618;2024-02-14T02:34:54;14.13;;;6.73;;
59728;SDS011;45588;51.598;5.618;2024-02-14T02:37:21;11.98;;;6.82;;
59728;SDS011;45588;51.598;5.618;2024-02-14T02:39:46;10.75;;;5.47;;
59728;SDS011;45588;51.598;5.618;2024-02-14T02:42:12;10.52;;;5.65;;
59728;SDS011;45588;51.598;5.618;2024-02-14T02:44:38;17.08;;;6.95;;
59728;SDS011;45588;51.598;5.618;2024-02-14T02:47:04;11.93;;;5.32;;
59728;SDS011;45588;51.598;5.618;2024-02-14T02:49:29;12.45;;;5.20;;
59728;SDS011;45588;51.598;5.618;2024-02-14T02:51:54;8.10;;;5.35;;
59728;SDS011;45588;51.598;5.618;2024-02-14T02:54:20;14.07;;;6.13;;
59728;SDS011;45588;51.598;5.618;2024-02-14T02:56:48;6.60;;;5.07;;
59728;SDS011;45588;51.598;5.618;2024-02-14T02:59:13;8.13;;;5.07;;
59728;SDS011;45588;51.598;5.618;2024-02-14T03:01:41;12.77;;;10.85;;
59728;SDS011;45588;51.598;5.618;2024-02-14T03:04:07;13.48;;;5.70;;
59728;SDS011;45588;51.598;5.618;2024-02-14T03:06:33;10.43;;;5.82;;
59728;SDS011;45588;51.598;5.618;2024-02-14T03:08:58;10.48;;;5.63;;
59728;SDS011;45588;51.598;5.618;2024-02-14T03:11:23;10.25;;;6.22;;
59728;SDS011;45588;51.598;5.618;2024-02-14T03:13:51;15.18;;;6.43;;
59728;SDS011;45588;51.598;5.618;2024-02-14T03:16:16;7.22;;;5.70;;
59728;SDS011;45588;51.598;5.618;2024-02-14T03:18:42;11.43;;;6.18;;
59728;SDS011;45588;51.598;5.618;2024-02-14T03:21:08;11.73;;;6.85;;
59728;SDS011;45588;51.598;5.618;2024-02-14T03:23:33;14.23;;;7.23;;
59728;SDS011;45588;51.598;5.618;2024-02-14T03:25:58;11.13;;;6.37;;
59728;SDS011;45588;51.598;5.618;2024-02-14T03:28:23;15.03;;;7.20;;
59728;SDS011;45588;51.598;5.618;2024-02-14T03:30:49;10.27;;;6.38;;
59728;SDS011;45588;51.598;5.618;2024-02-14T03:33:15;10.57;;;7.23;;
59728;SDS011;45588;51.598;5.618;2024-02-14T03:35:40;12.95;;;6.25;;
59728;SDS011;45588;51.598;5.618;2024-02-14T03:38:06;9.63;;;5.45;;
59728;SDS011;45588;51.598;5.618;2024-02-14T03:40:33;17.30;;;6.45;;
59728;SDS011;45588;51.598;5.618;2024-02-14T03:42:58;10.30;;;6.93;;
59728;SDS011;45588;51.598;5.618;2024-02-14T03:45:24;14.50;;;5.90;;
59728;SDS011;45588;51.598;5.618;2024-02-14T03:47:49;9.27;;;6.25;;
59728;SDS011;45588;51.598;5.618;2024-02-14T03:50:14;11.18;;;6.32;;
59728;SDS011;45588;51.598;5.618;2024-02-14T03:52:41;13.90;;;6.32;;
59728;SDS011;45588;51.598;5.618;2024-02-14T03:55:07;19.85;;;12.80;;
59728;SDS011;45588;51.598;5.618;2024-02-14T03:57:33;18.85;;;7.43;;
59728;SDS011;45588;51.598;5.618;2024-02-14T04:00:03;15.35;;;6.60;;
59728;SDS011;45588;51.598;5.618;2024-02-14T04:02:29;19.15;;;12.25;;
59728;SDS011;45588;51.598;5.618;2024-02-14T04:04:56;12.23;;;7.22;;
59728;SDS011;45588;51.598;5.618;2024-02-14T04:07:21;13.70;;;7.43;;
59728;SDS011;45588;51.598;5.618;2024-02-14T04:09:47;21.10;;;7.50;;
59728;SDS011;45588;51.598;5.618;2024-02-14T04:12:12;12.77;;;6.72;;
59728;SDS011;45588;51.598;5.618;2024-02-14T04:14:38;12.43;;;7.07;;
59728;SDS011;45588;51.598;5.618;2024-02-14T04:17:04;18.77;;;8.20;;
59728;SDS011;45588;51.598;5.618;2024-02-14T04:19:29;13.50;;;7.43;;
59728;SDS011;45588;51.598;5.618;2024-02-14T04:21:54;16.08;;;7.50;;
59728;SDS011;45588;51.598;5.618;2024-02-14T04:24:23;11.23;;;6.57;;
59728;SDS011;45588;51.598;5.618;2024-02-14T04:26:48;11.52;;;6.40;;
59728;SDS011;45588;51.598;5.618;2024-02-14T04:29:14;19.83;;;8.60;;
59728;SDS011;45588;51.598;5.618;2024-02-14T04:31:39;14.03;;;7.07;;
59728;SDS011;45588;51.598;5.618;2024-02-14T04:34:04;19.02;;;13.52;;
59728;SDS011;45588;51.598;5.618;2024-02-14T04:36:33;13.30;;;7.72;;
59728;SDS011;45588;51.598;5.618;2024-02-14T04:39:00;11.20;;;7.00;;
59728;SDS011;45588;51.598;5.618;2024-02-14T04:41:25;12.05;;;6.60;;
59728;SDS011;45588;51.598;5.618;2024-02-14T04:43:51;12.52;;;8.30;;
59728;SDS011;45588;51.598;5.618;2024-02-14T04:46:16;14.10;;;6.93;;
59728;SDS011;45588;51.598;5.618;2024-02-14T04:48:41;12.40;;;6.87;;
59728;SDS011;45588;51.598;5.618;2024-02-14T04:51:07;13.85;;;7.40;;
59728;SDS011;45588;51.598;5.618;2024-02-14T04:53:32;14.57;;;7.43;;
59728;SDS011;45588;51.598;5.618;2024-02-14T04:55:57;16.45;;;7.13;;
59728;SDS011;45588;51.598;5.618;2024-02-14T04:58:23;10.93;;;6.97;;
59728;SDS011;45588;51.598;5.618;2024-02-14T05:00:48;19.80;;;9.00;;
59728;SDS011;45588;51.598;5.618;2024-02-14T05:03:13;18.17;;;13.15;;
59728;SDS011;45588;51.598;5.618;2024-02-14T05:05:39;13.87;;;8.27;;
59728;SDS011;45588;51.598;5.618;2024-02-14T05:08:04;10.70;;;7.40;;
59728;SDS011;45588;51.598;5.618;2024-02-14T05:10:30;12.32;;;7.57;;
59728;SDS011;45588;51.598;5.618;2024-02-14T05:12:55;17.33;;;7.13;;
59728;SDS011;45588;51.598;5.618;2024-02-14T05:15:21;17.27;;;8.05;;
59728;SDS011;45588;51.598;5.618;2024-02-14T05:17:46;12.85;;;6.80;;
59728;SDS011;45588;51.598;5.618;2024-02-14T05:20:11;13.75;;;7.28;;
59728;SDS011;45588;51.598;5.618;2024-02-14T05:22:37;11.40;;;7.10;;
59728;SDS011;45588;51.598;5.618;2024-02-14T05:25:05;14.48;;;7.95;;
59728;SDS011;45588;51.598;5.618;2024-02-14T05:27:32;15.90;;;7.53;;
59728;SDS011;45588;51.598;5.618;2024-02-14T05:29:57;12.27;;;7.37;;
59728;SDS011;45588;51.598;5.618;2024-02-14T05:32:23;14.02;;;8.77;;
59728;SDS011;45588;51.598;5.618;2024-02-14T05:34:48;16.38;;;8.30;;
59728;SDS011;45588;51.598;5.618;2024-02-14T05:37:14;15.48;;;8.23;;
59728;SDS011;45588;51.598;5.618;2024-02-14T05:39:39;21.48;;;8.18;;
59728;SDS011;45588;51.598;5.618;2024-02-14T05:42:05;27.33;;;9.27;;
59728;SDS011;45588;51.598;5.618;2024-02-14T05:44:30;16.30;;;8.45;;
59728;SDS011;45588;51.598;5.618;2024-02-14T05:46:55;14.15;;;7.63;;
59728;SDS011;45588;51.598;5.618;2024-02-14T05:49:21;15.73;;;8.87;;
59728;SDS011;45588;51.598;5.618;2024-02-14T05:51:46;13.02;;;8.63;;
59728;SDS011;45588;51.598;5.618;2024-02-14T05:54:11;20.13;;;8.83;;
59728;SDS011;45588;51.598;5.618;2024-02-14T05:56:37;13.63;;;8.17;;
59728;SDS011;45588;51.598;5.618;2024-02-14T05:59:02;12.50;;;8.27;;
59728;SDS011;45588;51.598;5.618;2024-02-14T06:01:27;14.05;;;8.45;;
59728;SDS011;45588;51.598;5.618;2024-02-14T06:03:53;16.95;;;7.53;;
59728;SDS011;45588;51.598;5.618;2024-02-14T06:06:18;15.40;;;9.02;;
59728;SDS011;45588;51.598;5.618;2024-02-14T06:08:44;15.30;;;9.17;;
59728;SDS011;45588;51.598;5.618;2024-02-14T06:11:09;16.50;;;8.75;;
59728;SDS011;45588;51.598;5.618;2024-02-14T06:13:34;12.20;;;7.53;;
59728;SDS011;45588;51.598;5.618;2024-02-14T06:16:01;13.68;;;8.63;;
59728;SDS011;45588;51.598;5.618;2024-02-14T06:18:26;13.63;;;7.90;;
59728;SDS011;45588;51.598;5.618;2024-02-14T06:20:51;13.07;;;8.10;;
59728;SDS011;45588;51.598;5.618;2024-02-14T06:23:16;18.60;;;9.35;;
59728;SDS011;45588;51.598;5.618;2024-02-14T06:25:41;23.17;;;18.15;;
59728;SDS011;45588;51.598;5.618;2024-02-14T06:28:07;17.53;;;9.70;;
59728;SDS011;45588;51.598;5.618;2024-02-14T06:30:32;15.30;;;9.07;;
59728;SDS011;45588;51.598;5.618;2024-02-14T06:32:57;16.37;;;8.93;;
59728;SDS011;45588;51.598;5.618;2024-02-14T06:35:25;13.45;;;8.13;;
59728;SDS011;45588;51.598;5.618;2024-02-14T06:37:50;19.02;;;9.95;;
59728;SDS011;45588;51.598;5.618;2024-02-14T06:40:15;16.73;;;9.23;;
59728;SDS011;45588;51.598;5.618;2024-02-14T06:42:41;18.33;;;9.87;;
59728;SDS011;45588;51.598;5.618;2024-02-14T06:45:06;25.73;;;11.23;;
59728;SDS011;45588;51.598;5.618;2024-02-14T06:47:31;22.60;;;10.65;;
59728;SDS011;45588;51.598;5.618;2024-02-14T06:49:56;22.93;;;9.97;;
59728;SDS011;45588;51.598;5.618;2024-02-14T06:52:21;19.55;;;10.40;;
59728;SDS011;45588;51.598;5.618;2024-02-14T06:54:47;24.03;;;11.40;;
59728;SDS011;45588;51.598;5.618;2024-02-14T06:57:13;20.20;;;10.40;;
59728;SDS011;45588;51.598;5.618;2024-02-14T06:59:38;21.15;;;11.93;;
59728;SDS011;45588;51.598;5.618;2024-02-14T07:02:03;22.25;;;11.18;;
59728;SDS011;45588;51.598;5.618;2024-02-14T07:04:28;17.50;;;9.82;;
59728;SDS011;45588;51.598;5.618;2024-02-14T07:06:54;20.00;;;11.30;;
59728;SDS011;45588;51.598;5.618;2024-02-14T07:09:19;21.67;;;10.37;;
59728;SDS011;45588;51.598;5.618;2024-02-14T07:11:44;21.40;;;11.98;;
59728;SDS011;45588;51.598;5.618;2024-02-14T07:14:10;20.75;;;10.02;;
59728;SDS011;45588;51.598;5.618;2024-02-14T07:16:36;22.80;;;9.75;;
59728;SDS011;45588;51.598;5.618;2024-02-14T07:19:01;23.07;;;11.07;;
59728;SDS011;45588;51.598;5.618;2024-02-14T07:21:27;19.50;;;9.07;;
59728;SDS011;45588;51.598;5.618;2024-02-14T07:23:52;20.93;;;9.60;;
59728;SDS011;45588;51.598;5.618;2024-02-14T07:26:18;18.70;;;9.07;;
59728;SDS011;45588;51.598;5.618;2024-02-14T07:28:43;17.70;;;9.87;;
59728;SDS011;45588;51.598;5.618;2024-02-14T07:31:09;19.08;;;8.98;;
59728;SDS011;45588;51.598;5.618;2024-02-14T07:33:34;16.25;;;9.18;;
59728;SDS011;45588;51.598;5.618;2024-02-14T07:36:00;17.13;;;9.35;;
59728;SDS011;45588;51.598;5.618;2024-02-14T07:38:25;18.83;;;10.97;;
59728;SDS011;45588;51.598;5.618;2024-02-14T07:40:50;17.93;;;10.60;;
59728;SDS011;45588;51.598;5.618;2024-02-14T07:43:15;22.63;;;9.82;;
59728;SDS011;45588;51.598;5.618;2024-02-14T07:45:40;26.83;;;11.32;;
59728;SDS011;45588;51.598;5.618;2024-02-14T07:48:06;15.50;;;10.05;;
59728;SDS011;45588;51.598;5.618;2024-02-14T07:50:31;18.17;;;9.85;;
59728;SDS011;45588;51.598;5.618;2024-02-14T07:52:57;21.60;;;10.10;;
59728;SDS011;45588;51.598;5.618;2024-02-14T07:55:23;24.63;;;12.77;;
59728;SDS011;45588;51.598;5.618;2024-02-14T07:57:49;16.92;;;10.32;;
59728;SDS011;45588;51.598;5.618;2024-02-14T08:00:14;21.33;;;10.25;;
59728;SDS011;45588;51.598;5.618;2024-02-14T08:02:47;29.38;;;10.15;;
59728;SDS011;45588;51.598;5.618;2024-02-14T08:05:12;21.40;;;10.35;;
59728;SDS011;45588;51.598;5.618;2024-02-14T08:07:37;26.90;;;11.17;;
59728;SDS011;45588;51.598;5.618;2024-02-14T08:10:02;29.23;;;11.93;;
59728;SDS011;45588;51.598;5.618;2024-02-14T08:12:29;20.60;;;12.45;;
59728;SDS011;45588;51.598;5.618;2024-02-14T08:14:55;23.38;;;12.88;;
59728;SDS011;45588;51.598;5.618;2024-02-14T08:17:20;27.27;;;11.43;;
59728;SDS011;45588;51.598;5.618;2024-02-14T08:19:46;28.73;;;12.07;;
59728;SDS011;45588;51.598;5.618;2024-02-14T08:22:11;27.02;;;11.77;;
59728;SDS011;45588;51.598;5.618;2024-02-14T08:24:37;22.55;;;12.00;;
59728;SDS011;45588;51.598;5.618;2024-02-14T08:27:02;29.42;;;12.25;;
59728;SDS011;45588;51.598;5.618;2024-02-14T08:29:31;21.08;;;11.70;;
59728;SDS011;45588;51.598;5.618;2024-02-14T08:31:56;28.43;;;13.07;;
59728;SDS011;45588;51.598;5.618;2024-02-14T08:34:21;25.27;;;12.03;;
59728;SDS011;45588;51.598;5.618;2024-02-14T08:36:47;22.90;;;11.93;;
59728;SDS011;45588;51.598;5.618;2024-02-14T08:39:12;27.05;;;12.35;;
59728;SDS011;45588;51.598;5.618;2024-02-14T08:41:37;24.48;;;11.60;;
59728;SDS011;45588;51.598;5.618;2024-02-14T08:44:03;23.90;;;11.18;;
59728;SDS011;45588;51.598;5.618;2024-02-14T08:46:30;22.25;;;12.75;;
59728;SDS011;45588;51.598;5.618;2024-02-14T08:48:55;26.48;;;12.13;;
59728;SDS011;45588;51.598;5.618;2024-02-14T08:51:20;25.70;;;11.87;;
59728;SDS011;45588;51.598;5.618;2024-02-14T08:53:46;27.57;;;12.40;;
59728;SDS011;45588;51.598;5.618;2024-02-14T08:56:11;25.02;;;11.50;;
59728;SDS011;45588;51.598;5.618;2024-02-14T08:58:36;27.95;;;12.27;;
59728;SDS011;45588;51.598;5.618;2024-02-14T09:01:01;26.52;;;12.07;;
59728;SDS011;45588;51.598;5.618;2024-02-14T09:03:26;27.37;;;11.17;;
59728;SDS011;45588;51.598;5.618;2024-02-14T09:05:52;18.13;;;11.10;;
59728;SDS011;45588;51.598;5.618;2024-02-14T09:08:18;25.35;;;12.75;;
59728;SDS011;45588;51.598;5.618;2024-02-14T09:10:43;35.03;;;22.88;;
59728;SDS011;45588;51.598;5.618;2024-02-14T09:13:11;24.95;;;11.68;;
59728;SDS011;45588;51.598;5.618;2024-02-14T09:15:36;25.00;;;11.52;;
59728;SDS011;45588;51.598;5.618;2024-02-14T09:18:01;21.67;;;11.50;;
59728;SDS011;45588;51.598;5.618;2024-02-14T09:20:28;24.48;;;11.35;;
59728;SDS011;45588;51.598;5.618;2024-02-14T09:22:53;18.80;;;10.25;;
59728;SDS011;45588;51.598;5.618;2024-02-14T09:25:19;33.55;;;11.63;;
59728;SDS011;45588;51.598;5.618;2024-02-14T09:27:44;21.98;;;10.63;;
59728;SDS011;45588;51.598;5.618;2024-02-14T09:30:12;19.25;;;10.70;;
59728;SDS011;45588;51.598;5.618;2024-02-14T09:32:37;20.52;;;10.38;;
59728;SDS011;45588;51.598;5.618;2024-02-14T09:35:02;27.27;;;12.23;;
59728;SDS011;45588;51.598;5.618;2024-02-14T09:37:31;16.95;;;8.93;;
59728;SDS011;45588;51.598;5.618;2024-02-14T09:39:57;20.95;;;10.35;;
59728;SDS011;45588;51.598;5.618;2024-02-14T09:42:24;23.45;;;9.75;;
59728;SDS011;45588;51.598;5.618;2024-02-14T09:44:52;22.45;;;9.35;;
59728;SDS011;45588;51.598;5.618;2024-02-14T09:47:17;16.92;;;8.57;;
59728;SDS011;45588;51.598;5.618;2024-02-14T09:49:43;21.80;;;9.63;;
59728;SDS011;45588;51.598;5.618;2024-02-14T09:52:09;22.08;;;8.25;;
59728;SDS011;45588;51.598;5.618;2024-02-14T09:54:36;21.35;;;10.93;;
59728;SDS011;45588;51.598;5.618;2024-02-14T09:57:03;17.88;;;8.77;;
59728;SDS011;45588;51.598;5.618;2024-02-14T09:59:29;22.77;;;10.30;;
59728;SDS011;45588;51.598;5.618;2024-02-14T10:01:54;17.02;;;9.57;;
59728;SDS011;45588;51.598;5.618;2024-02-14T10:04:20;18.17;;;9.25;;
59728;SDS011;45588;51.598;5.618;2024-02-14T10:06:47;21.80;;;10.60;;
59728;SDS011;45588;51.598;5.618;2024-02-14T10:09:13;23.10;;;10.48;;
59728;SDS011;45588;51.598;5.618;2024-02-14T10:11:43;24.20;;;15.52;;
59728;SDS011;45588;51.598;5.618;2024-02-14T10:14:10;19.42;;;9.15;;
59728;SDS011;45588;51.598;5.618;2024-02-14T10:16:37;14.98;;;9.15;;
59728;SDS011;45588;51.598;5.618;2024-02-14T10:19:03;13.63;;;7.75;;
59728;SDS011;45588;51.598;5.618;2024-02-14T10:21:29;26.42;;;15.80;;
59728;SDS011;45588;51.598;5.618;2024-02-14T10:23:54;15.68;;;9.13;;
59728;SDS011;45588;51.598;5.618;2024-02-14T10:26:22;14.90;;;7.78;;
59728;SDS011;45588;51.598;5.618;2024-02-14T10:28:48;11.15;;;6.95;;
59728;SDS011;45588;51.598;5.618;2024-02-14T10:31:20;13.38;;;6.72;;
59728;SDS011;45588;51.598;5.618;2024-02-14T10:33:46;9.98;;;7.43;;
59728;SDS011;45588;51.598;5.618;2024-02-14T10:36:12;15.95;;;8.52;;
59728;SDS011;45588;51.598;5.618;2024-02-14T10:38:37;16.80;;;8.27;;
59728;SDS011;45588;51.598;5.618;2024-02-14T10:41:02;12.82;;;8.50;;
59728;SDS011;45588;51.598;5.618;2024-02-14T10:43:28;15.18;;;7.20;;
59728;SDS011;45588;51.598;5.618;2024-02-14T10:45:54;19.50;;;8.45;;
59728;SDS011;45588;51.598;5.618;2024-02-14T10:48:19;17.33;;;9.77;;
59728;SDS011;45588;51.598;5.618;2024-02-14T10:50:50;19.97;;;8.43;;
59728;SDS011;45588;51.598;5.618;2024-02-14T10:53:15;16.88;;;9.10;;
59728;SDS011;45588;51.598;5.618;2024-02-14T10:55:41;17.02;;;8.13;;
59728;SDS011;45588;51.598;5.618;2024-02-14T10:58:10;19.20;;;8.82;;
59728;SDS011;45588;51.598;5.618;2024-02-14T11:00:36;12.35;;;8.00;;
59728;SDS011;45588;51.598;5.618;2024-02-14T11:03:02;14.73;;;8.35;;
59728;SDS011;45588;51.598;5.618;2024-02-14T11:05:27;13.82;;;8.30;;
59728;SDS011;45588;51.598;5.618;2024-02-14T11:07:52;16.95;;;7.75;;
59728;SDS011;45588;51.598;5.618;2024-02-14T11:10:18;23.35;;;15.50;;
59728;SDS011;45588;51.598;5.618;2024-02-14T11:12:43;14.85;;;9.25;;
59728;SDS011;45588;51.598;5.618;2024-02-14T11:15:19;15.32;;;8.38;;
59728;SDS011;45588;51.598;5.618;2024-02-14T11:17:45;14.13;;;8.85;;
59728;SDS011;45588;51.598;5.618;2024-02-14T11:20:11;17.33;;;9.43;;
59728;SDS011;45588;51.598;5.618;2024-02-14T11:22:39;16.98;;;8.65;;
59728;SDS011;45588;51.598;5.618;2024-02-14T11:25:09;13.90;;;8.85;;
59728;SDS011;45588;51.598;5.618;2024-02-14T11:27:44;11.48;;;7.68;;
59728;SDS011;45588;51.598;5.618;2024-02-14T11:30:10;16.30;;;7.57;;
59728;SDS011;45588;51.598;5.618;2024-02-14T11:32:37;14.23;;;7.53;;
59728;SDS011;45588;51.598;5.618;2024-02-14T11:35:04;14.85;;;12.32;;
59728;SDS011;45588;51.598;5.618;2024-02-14T11:37:30;9.65;;;5.95;;
59728;SDS011;45588;51.598;5.618;2024-02-14T11:40:00;12.65;;;7.47;;
59728;SDS011;45588;51.598;5.618;2024-02-14T11:42:26;15.38;;;12.75;;
59728;SDS011;45588;51.598;5.618;2024-02-14T11:44:52;15.50;;;13.65;;
59728;SDS011;45588;51.598;5.618;2024-02-14T11:47:17;11.25;;;7.85;;
59728;SDS011;45588;51.598;5.618;2024-02-14T11:49:42;12.70;;;7.82;;
59728;SDS011;45588;51.598;5.618;2024-02-14T11:52:09;12.27;;;7.68;;
59728;SDS011;45588;51.598;5.618;2024-02-14T11:54:35;11.00;;;8.10;;
59728;SDS011;45588;51.598;5.618;2024-02-14T11:57:00;10.95;;;7.82;;
59728;SDS011;45588;51.598;5.618;2024-02-14T11:59:25;13.80;;;7.88;;
59728;SDS011;45588;51.598;5.618;2024-02-14T12:01:51;13.25;;;8.05;;
59728;SDS011;45588;51.598;5.618;2024-02-14T12:04:17;14.07;;;10.15;;
59728;SDS011;45588;51.598;5.618;2024-02-14T12:06:42;11.10;;;7.93;;
59728;SDS011;45588;51.598;5.618;2024-02-14T12:09:08;19.15;;;16.23;;
59728;SDS011;45588;51.598;5.618;2024-02-14T12:11:37;17.08;;;9.05;;
59728;SDS011;45588;51.598;5.618;2024-02-14T12:14:04;18.92;;;17.13;;
59728;SDS011;45588;51.598;5.618;2024-02-14T12:16:30;14.02;;;9.05;;
59728;SDS011;45588;51.598;5.618;2024-02-14T12:21:37;13.30;;;9.02;;
59728;SDS011;45588;51.598;5.618;2024-02-14T12:24:04;19.73;;;10.68;;
59728;SDS011;45588;51.598;5.618;2024-02-14T12:26:30;16.80;;;10.38;;
59728;SDS011;45588;51.598;5.618;2024-02-14T12:28:56;16.75;;;9.85;;
59728;SDS011;45588;51.598;5.618;2024-02-14T12:31:23;18.53;;;10.67;;
59728;SDS011;45588;51.598;5.618;2024-02-14T12:33:49;15.95;;;10.68;;
59728;SDS011;45588;51.598;5.618;2024-02-14T12:36:14;16.10;;;10.90;;
59728;SDS011;45588;51.598;5.618;2024-02-14T12:38:39;17.52;;;11.32;;
59728;SDS011;45588;51.598;5.618;2024-02-14T12:41:05;17.05;;;11.55;;
59728;SDS011;45588;51.598;5.618;2024-02-14T12:43:30;17.90;;;11.90;;
59728;SDS011;45588;51.598;5.618;2024-02-14T12:45:56;17.03;;;11.60;;
59728;SDS011;45588;51.598;5.618;2024-02-14T12:48:24;15.03;;;10.93;;
59728;SDS011;45588;51.598;5.618;2024-02-14T12:50:51;26.20;;;23.50;;
59728;SDS011;45588;51.598;5.618;2024-02-14T12:53:17;16.30;;;11.60;;
59728;SDS011;45588;51.598;5.618;2024-02-14T12:55:42;17.05;;;10.43;;
59728;SDS011;45588;51.598;5.618;2024-02-14T12:58:07;13.60;;;9.73;;
59728;SDS011;45588;51.598;5.618;2024-02-14T13:00:34;19.75;;;9.50;;
59728;SDS011;45588;51.598;5.618;2024-02-14T13:02:59;13.18;;;9.95;;
59728;SDS011;45588;51.598;5.618;2024-02-14T13:05:28;14.63;;;8.88;;
59728;SDS011;45588;51.598;5.618;2024-02-14T13:07:54;12.88;;;8.90;;
59728;SDS011;45588;51.598;5.618;2024-02-14T13:10:19;12.30;;;8.07;;
59728;SDS011;45588;51.598;5.618;2024-02-14T13:12:44;11.30;;;8.07;;
59728;SDS011;45588;51.598;5.618;2024-02-14T13:15:10;9.77;;;7.10;;
59728;SDS011;45588;51.598;5.618;2024-02-14T13:17:35;8.85;;;6.05;;
59728;SDS011;45588;51.598;5.618;2024-02-14T13:20:01;10.75;;;6.65;;
59728;SDS011;45588;51.598;5.618;2024-02-14T13:22:26;10.43;;;6.45;;
59728;SDS011;45588;51.598;5.618;2024-02-14T13:24:52;9.90;;;5.72;;
59728;SDS011;45588;51.598;5.618;2024-02-14T13:27:20;8.68;;;5.82;;
59728;SDS011;45588;51.598;5.618;2024-02-14T13:29:47;10.15;;;5.40;;
59728;SDS011;45588;51.598;5.618;2024-02-14T13:32:12;8.82;;;5.03;;
59728;SDS011;45588;51.598;5.618;2024-02-14T13:34:38;9.03;;;5.53;;
59728;SDS011;45588;51.598;5.618;2024-02-14T13:37:03;7.65;;;4.82;;
59728;SDS011;45588;51.598;5.618;2024-02-14T13:39:29;14.82;;;5.35;;
59728;SDS011;45588;51.598;5.618;2024-02-14T13:41:54;9.23;;;5.28;;
59728;SDS011;45588;51.598;5.618;2024-02-14T13:44:23;9.05;;;4.70;;
59728;SDS011;45588;51.598;5.618;2024-02-14T13:46:49;8.10;;;4.65;;
59728;SDS011;45588;51.598;5.618;2024-02-14T13:49:15;6.55;;;4.22;;
59728;SDS011;45588;51.598;5.618;2024-02-14T13:51:45;6.93;;;4.75;;
59728;SDS011;45588;51.598;5.618;2024-02-14T13:54:10;5.68;;;4.60;;
59728;SDS011;45588;51.598;5.618;2024-02-14T13:56:36;7.90;;;4.17;;
59728;SDS011;45588;51.598;5.618;2024-02-14T13:59:01;8.65;;;7.75;;
59728;SDS011;45588;51.598;5.618;2024-02-14T14:01:27;12.30;;;8.65;;
59728;SDS011;45588;51.598;5.618;2024-02-14T14:03:52;6.97;;;4.47;;
59728;SDS011;45588;51.598;5.618;2024-02-14T14:06:19;6.97;;;4.43;;
59728;SDS011;45588;51.598;5.618;2024-02-14T14:08:45;7.32;;;4.72;;
59728;SDS011;45588;51.598;5.618;2024-02-14T14:11:10;13.50;;;8.20;;
59728;SDS011;45588;51.598;5.618;2024-02-14T14:13:35;5.65;;;4.40;;
59728;SDS011;45588;51.598;5.618;2024-02-14T14:16:01;6.85;;;4.43;;
59728;SDS011;45588;51.598;5.618;2024-02-14T14:18:26;5.63;;;4.22;;
59728;SDS011;45588;51.598;5.618;2024-02-14T14:20:51;7.87;;;4.40;;
59728;SDS011;45588;51.598;5.618;2024-02-14T14:23:17;6.85;;;4.85;;
59728;SDS011;45588;51.598;5.618;2024-02-14T14:25:42;10.77;;;4.80;;
59728;SDS011;45588;51.598;5.618;2024-02-14T14:28:08;6.13;;;4.80;;